createdAt,value
2022-09-06T00:19:06.853Z,21.82
2022-09-06T00:47:33.854Z,21.81
2022-09-06T01:16:01.123Z,23.21
2022-09-06T01:44:21.443Z,21.74
2022-09-06T02:12:51.004Z,21.79
2022-09-06T02:41:22.302Z,21.67
2022-09-06T03:09:37.156Z,20.92
2022-09-06T03:38:44.548Z,20.75
2022-09-06T04:07:58.947Z,21.59
2022-09-06T04:36:51.949Z,20.7
2022-09-06T05:05:53.852Z,22.38
2022-09-06T05:34:53.363Z,22.19
2022-09-06T06:03:13.254Z,22.09
2022-09-06T06:31:23.581Z,20.91
2022-09-06T07:00:28.541Z,22.02
2022-09-06T07:28:55.193Z,21.89
2022-09-06T07:57:51.327Z,22.07
2022-09-06T08:26:59.714Z,23.27
2022-09-06T08:56:11.180Z,24.54
2022-09-06T09:25:06.971Z,23.37
2022-09-06T09:53:30.319Z,23.92
2022-09-06T10:21:56.794Z,25.85
2022-09-06T10:50:29.795Z,27.26
2022-09-06T11:19:30.541Z,27.78
2022-09-06T11:48:30.652Z,27.74
2022-09-06T12:17:41.666Z,28.21
2022-09-06T12:46:40.546Z,27.78
2022-09-06T13:15:41.179Z,27.63
2022-09-06T13:44:45.946Z,27.59
2022-09-06T14:13:52.506Z,27.71
2022-09-06T14:42:50.923Z,27.96
2022-09-06T15:11:28.734Z,28.01
2022-09-06T15:40:34.560Z,27.87
2022-09-06T16:09:44.412Z,27.73
2022-09-06T16:38:48.450Z,27.57
2022-09-06T17:07:54.796Z,27.35
2022-09-06T17:37:00.818Z,26.99
2022-09-06T18:06:03.837Z,26.25
2022-09-06T18:34:20.349Z,24.86
2022-09-06T19:02:37.351Z,24
2022-09-06T19:30:57.867Z,23.46
2022-09-06T19:59:16.948Z,22.99
2022-09-06T20:27:52.692Z,23.16
2022-09-06T20:56:19.581Z,24.85
2022-09-06T21:24:37.573Z,23.32
2022-09-06T21:52:59.649Z,22.44
2022-09-06T22:21:10.342Z,21.53
2022-09-06T22:49:36.722Z,21.62
2022-09-06T23:18:36.536Z,21.8
2022-09-06T23:47:05.532Z,22.03
